Time;durP1;ratioP1;P1;durP2;ratioP2;P2;SDS_P1;SDS_P2;PMS_P1;PMS_P2;Temp;Humidity;BMP_temperature;BMP_pressure;BME280_temperature;BME280_humidity;BME280_pressure;Samples;Min_cycle;Max_cycle;Signal;HPM_P1;HPM_P2
2022/07/28 00:00:15;;;;;;;15.23;8.93;;;;;;;23.18;100.00;63284.72;5071699;28;20666;-75
2022/07/28 00:02:44;;;;;;;12.87;8.70;;;;;;;23.53;100.00;63322.16;5090149;28;20228;-76
2022/07/28 00:05:12;;;;;;;14.17;9.00;;;;;;;23.37;100.00;63304.81;5079244;28;20270;-74
2022/07/28 00:07:41;;;;;;;14.50;9.20;;;;;;;22.75;100.00;63242.78;5077781;28;20214;-79
2022/07/28 00:10:10;;;;;;;17.70;9.23;;;;;;;23.29;100.00;63294.06;5091600;28;20201;-78
2022/07/28 00:12:48;;;;;;;19.43;8.87;;;;;;;23.06;100.00;63271.19;5066052;28;20195;-78
2022/07/28 00:15:28;;;;;;;22.23;9.67;;;;;;;23.37;100.00;63307.41;5090517;28;20577;-76
2022/07/28 00:18:17;;;;;;;20.77;10.93;;;;;;;23.44;100.00;63315.00;5090871;28;20208;-76
2022/07/28 00:20:48;;;;;;;20.57;10.47;;;;;;;23.15;100.00;63280.94;5066799;28;20188;-77
2022/07/28 00:23:20;;;;;;;16.07;9.97;;;;;;;22.88;100.00;63251.69;5090427;28;20230;-79
2022/07/28 00:25:54;;;;;;;13.60;9.33;;;;;;;22.46;100.00;63206.66;5071854;28;20279;-79
2022/07/28 00:28:39;;;;;;;16.37;10.30;;;;;;;22.59;100.00;63223.38;5071674;28;20269;-79
2022/07/28 00:31:18;;;;;;;12.90;9.50;;;;;;;21.90;100.00;63149.16;5071857;28;20621;-78
2022/07/28 00:33:52;;;;;;;16.07;9.77;;;;;;;22.38;100.00;63201.16;5066468;28;20274;-80
2022/07/28 00:36:33;;;;;;;15.63;9.30;;;;;;;22.22;100.00;63186.41;5083966;28;20217;-78
2022/07/28 00:41:47;;;;;;;17.00;11.63;;;;;;;21.82;100.00;63137.91;5080086;28;20220;-76
2022/07/28 00:44:18;;;;;;;21.80;13.03;;;;;;;21.45;100.00;63100.41;5078822;28;20283;-79
2022/07/28 00:49:47;;;;;;;17.43;12.97;;;;;;;21.08;100.00;63057.78;5089371;28;20204;-78
2022/07/28 00:52:20;;;;;;;18.60;11.10;;;;;;;20.78;100.00;63028.97;5081574;28;20618;-78
2022/07/28 00:54:49;;;;;;;15.53;10.23;;;;;;;20.60;100.00;63009.50;5079935;28;20355;-79
2022/07/28 01:00:05;;;;;;;15.57;9.13;;;;;;;20.67;100.00;63017.06;5078927;28;20355;-78
2022/07/28 01:02:36;;;;;;;11.97;10.00;;;;;;;20.44;100.00;62989.59;5079422;28;20298;-79
2022/07/28 01:05:24;;;;;;;22.30;9.80;;;;;;;20.37;100.00;62984.63;5078784;28;20195;-80
2022/07/28 01:08:05;;;;;;;13.60;9.67;;;;;;;20.64;100.00;63011.25;5077888;28;20211;-80
2022/07/28 01:10:40;;;;;;;13.60;10.17;;;;;;;20.40;100.00;62982.16;5078500;28;20570;-76
2022/07/28 01:13:30;;;;;;;14.23;10.07;;;;;;;20.75;100.00;63020.00;5078572;28;20206;-78
2022/07/28 01:16:02;;;;;;;11.90;10.00;;;;;;;20.73;100.00;63017.81;5078954;28;20191;-75
2022/07/28 01:18:34;;;;;;;12.73;9.87;;;;;;;20.85;100.00;63030.81;5078232;28;20215;-77
2022/07/28 01:21:11;;;;;;;13.57;9.90;;;;;;;20.95;100.00;63047.34;5079080;28;20196;-76
2022/07/28 01:24:03;;;;;;;14.50;10.50;;;;;;;20.57;100.00;63003.66;5078376;28;20227;-78
2022/07/28 01:26:41;;;;;;;11.50;10.20;;;;;;;20.88;100.00;63037.19;5068597;28;20287;-76
2022/07/28 01:29:22;;;;;;;16.20;10.70;;;;;;;21.13;100.00;63066.31;5077664;28;20223;-76
2022/07/28 01:31:57;;;;;;;12.30;11.00;;;;;;;21.02;100.00;63049.78;5094908;28;20206;-74
2022/07/28 01:34:29;;;;;;;14.63;11.33;;;;;;;21.32;100.00;63081.16;5097358;28;20199;-76
2022/07/28 01:37:03;;;;;;;12.33;10.47;;;;;;;21.28;100.00;63082.00;5097411;28;20206;-76
2022/07/28 01:39:35;;;;;;;14.53;11.53;;;;;;;21.29;100.00;63081.03;5096372;28;20221;-75
2022/07/28 01:42:08;;;;;;;16.07;11.40;;;;;;;21.28;100.00;63077.38;5097478;28;20223;-75
2022/07/28 01:44:40;;;;;;;17.33;12.00;;;;;;;21.37;100.00;63086.56;5082888;28;20200;-76
2022/07/28 01:47:11;;;;;;;13.47;11.40;;;;;;;21.48;100.00;63098.47;5073536;28;20211;-74
2022/07/28 01:49:38;;;;;;;16.00;11.27;;;;;;;21.19;100.00;63067.63;5086553;28;20206;-75
2022/07/28 01:52:08;;;;;;;18.53;11.77;;;;;;;20.96;100.00;63045.84;5093681;28;20199;-76
2022/07/28 01:54:38;;;;;;;13.87;12.27;;;;;;;21.34;100.00;63081.28;5094236;28;20226;-77
2022/07/28 01:57:13;;;;;;;15.07;11.87;;;;;;;21.40;100.00;63092.41;5081464;28;20203;-78
2022/07/28 01:59:41;;;;;;;15.13;11.60;;;;;;;20.97;100.00;63046.94;5093537;28;20195;-76
2022/07/28 02:02:11;;;;;;;15.40;11.57;;;;;;;21.44;100.00;63099.31;5093721;28;20226;-76
2022/07/28 02:04:42;;;;;;;16.83;11.57;;;;;;;20.65;100.00;63009.19;5092954;28;20654;-76
2022/07/28 02:07:11;;;;;;;12.73;11.10;;;;;;;21.31;100.00;63083.19;5083759;28;20580;-77
2022/07/28 02:09:40;;;;;;;21.93;11.63;;;;;;;21.26;100.00;63079.84;5081605;28;20203;-76
2022/07/28 02:12:09;;;;;;;19.80;13.10;;;;;;;21.31;100.00;63085.25;5093376;28;20211;-76
2022/07/28 02:14:39;;;;;;;15.00;12.77;;;;;;;21.23;100.00;63071.41;5093731;28;20567;-75
2022/07/28 02:17:13;;;;;;;19.30;13.80;;;;;;;21.16;100.00;63069.56;5092706;28;20188;-74
2022/07/28 02:19:42;;;;;;;19.13;13.73;;;;;;;21.12;100.00;63060.06;5092871;28;20203;-76
2022/07/28 02:22:11;;;;;;;17.87;14.03;;;;;;;21.09;100.00;63061.97;5091642;28;20223;-78
2022/07/28 02:24:40;;;;;;;18.13;13.00;;;;;;;21.07;100.00;63059.28;5081085;28;20208;-77
2022/07/28 02:27:12;;;;;;;22.43;12.80;;;;;;;20.73;100.00;63026.16;5083191;28;20705;-74
2022/07/28 02:29:45;;;;;;;17.30;13.40;;;;;;;20.91;100.00;63037.84;5077836;28;20311;-75
2022/07/28 02:32:20;;;;;;;17.53;12.97;;;;;;;20.93;100.00;63042.06;5068673;28;20210;-75
2022/07/28 02:34:49;;;;;;;19.77;14.00;;;;;;;20.90;100.00;63036.78;5092824;28;20199;-75
2022/07/28 02:37:19;;;;;;;20.40;13.77;;;;;;;20.84;100.00;63035.47;5093669;28;20206;-74
2022/07/28 02:39:51;;;;;;;15.13;13.23;;;;;;;20.12;100.00;62949.81;5092322;28;20281;-78
2022/07/28 02:42:22;;;;;;;18.00;13.63;;;;;;;20.91;100.00;63037.84;5092309;28;20260;-74
2022/07/28 02:44:59;;;;;;;18.00;13.50;;;;;;;20.00;100.00;62939.94;5085880;28;20203;-77
2022/07/28 02:47:31;;;;;;;17.63;13.63;;;;;;;20.99;100.00;63046.50;5093358;28;20646;-78
2022/07/28 02:50:02;;;;;;;18.13;14.33;;;;;;;20.78;100.00;63023.25;5093673;28;20203;-76
2022/07/28 02:52:30;;;;;;;16.07;13.73;;;;;;;20.75;100.00;63020.00;5093248;28;20200;-76
2022/07/28 02:55:01;;;;;;;21.23;14.77;;;;;;;21.21;100.00;63077.03;5082592;28;20188;-75
2022/07/28 02:57:29;;;;;;;17.77;14.63;;;;;;;21.36;100.00;63088.06;5072851;28;20258;-76
2022/07/28 02:59:58;;;;;;;21.57;15.27;;;;;;;21.40;100.00;63089.81;5072713;28;20196;-75
2022/07/28 03:02:29;;;;;;;17.57;14.90;;;;;;;21.44;100.00;63099.31;5072771;28;20714;-77
2022/07/28 03:04:57;;;;;;;19.50;14.77;;;;;;;21.40;100.00;63090.34;5071832;28;20196;-76
2022/07/28 03:07:25;;;;;;;16.87;14.77;;;;;;;21.33;100.00;63082.78;5079590;28;20234;-76
2022/07/28 03:09:54;;;;;;;16.27;13.30;;;;;;;21.51;100.00;63106.91;5092327;28;20624;-76
2022/07/28 03:12:21;;;;;;;16.63;12.70;;;;;;;21.18;100.00;63071.19;5065648;28;20638;-76
2022/07/28 03:14:49;;;;;;;14.57;12.63;;;;;;;21.47;100.00;63100.00;5092292;28;20252;-75
2022/07/28 03:17:16;;;;;;;16.13;13.00;;;;;;;21.47;100.00;63097.41;5066666;28;20207;-75
2022/07/28 03:19:46;;;;;;;16.13;12.77;;;;;;;21.41;100.00;63096.09;5091412;28;20198;-74
2022/07/28 03:22:13;;;;;;;16.93;13.07;;;;;;;21.36;100.00;63085.47;5091730;28;20216;-76
2022/07/28 03:24:43;;;;;;;17.20;14.50;;;;;;;20.55;100.00;62998.91;5077900;28;20203;-75
2022/07/28 03:27:17;;;;;;;15.07;12.90;;;;;;;21.49;100.00;63105.28;5084390;28;20192;-74
2022/07/28 03:29:48;;;;;;;17.50;13.37;;;;;;;21.50;100.00;63105.81;5072009;28;20228;-77
2022/07/28 03:32:18;;;;;;;17.53;13.83;;;;;;;21.33;100.00;63087.44;5072268;28;20204;-76
2022/07/28 03:34:47;;;;;;;15.90;12.10;;;;;;;21.10;100.00;63065.13;5072352;28;20571;-75
2022/07/28 03:37:18;;;;;;;25.07;14.03;;;;;;;21.12;100.00;63059.50;5071927;28;20207;-75
2022/07/28 03:39:48;;;;;;;17.70;13.23;;;;;;;21.06;100.00;63058.19;5072610;28;20208;-76
2022/07/28 03:42:17;;;;;;;17.13;14.23;;;;;;;21.12;100.00;63062.09;5071834;28;20195;-76
2022/07/28 03:44:45;;;;;;;16.23;12.57;;;;;;;20.93;100.00;63044.66;5072274;28;20222;-76
2022/07/28 03:47:12;;;;;;;21.30;14.73;;;;;;;20.83;100.00;63031.22;5071582;28;20664;-75
2022/07/28 03:49:40;;;;;;;28.07;16.57;;;;;;;20.93;100.00;63040.00;5071886;28;20651;-75
2022/07/28 03:52:08;;;;;;;21.33;15.73;;;;;;;20.95;100.00;63047.34;5071606;28;20578;-77
2022/07/28 03:54:36;;;;;;;21.20;15.13;;;;;;;20.87;100.00;63036.09;5071470;28;20200;-76
2022/07/28 03:57:03;;;;;;;18.47;14.60;;;;;;;20.68;100.00;63015.56;5072053;28;20213;-76
2022/07/28 03:59:30;;;;;;;23.17;16.47;;;;;;;20.37;100.00;62987.19;5071870;28;20196;-75
2022/07/28 04:01:58;;;;;;;24.57;15.93;;;;;;;20.34;100.00;62983.97;5071822;28;20192;-74
2022/07/28 04:04:25;;;;;;;20.97;16.87;;;;;;;20.48;100.00;62996.53;5072009;28;20319;-76
2022/07/28 04:06:53;;;;;;;19.90;15.03;;;;;;;20.58;100.00;63004.75;5072485;28;20614;-77
2022/07/28 04:09:23;;;;;;;18.20;14.83;;;;;;;20.52;100.00;63000.84;5071126;28;20283;-76
2022/07/28 04:11:51;;;;;;;21.53;15.57;;;;;;;20.43;100.00;62990.56;5073305;28;20193;-75
2022/07/28 04:14:17;;;;;;;22.53;14.93;;;;;;;20.22;100.00;62968.41;5060187;28;20203;-75
2022/07/28 04:16:45;;;;;;;27.43;17.17;;;;;;;20.23;100.00;62969.47;5080242;28;20214;-76
2022/07/28 04:19:12;;;;;;;24.13;16.67;;;;;;;19.76;100.00;62916.59;5080286;28;20208;-77
2022/07/28 04:21:39;;;;;;;16.83;11.60;;;;;;;20.17;100.00;62960.94;5073366;28;20231;-75
2022/07/28 04:24:09;;;;;;;13.13;11.00;;;;;;;19.90;100.00;62931.72;5072196;28;20234;-76
2022/07/28 04:26:38;;;;;;;10.67;9.30;;;;;;;20.48;100.00;62990.78;5072642;28;20200;-76
2022/07/28 04:29:07;;;;;;;11.80;10.57;;;;;;;20.37;100.00;62984.63;5071514;28;20714;-75
2022/07/28 04:31:34;;;;;;;15.43;11.33;;;;;;;20.61;100.00;63002.25;5071265;28;20200;-75
2022/07/28 04:34:01;;;;;;;14.27;10.37;;;;;;;20.40;100.00;62984.75;5071611;28;20238;-76
2022/07/28 04:36:28;;;;;;;12.87;9.90;;;;;;;20.38;100.00;62990.88;5071880;28;20200;-74
2022/07/28 04:38:58;;;;;;;13.03;10.20;;;;;;;20.48;100.00;62993.94;5070115;28;20214;-76
2022/07/28 04:41:26;;;;;;;12.60;9.60;;;;;;;19.83;100.00;62921.03;5081242;28;20233;-77
2022/07/28 04:43:58;;;;;;;14.20;9.43;;;;;;;20.36;100.00;62983.00;5081700;28;20220;-75
2022/07/28 04:46:25;;;;;;;11.63;9.03;;;;;;;20.48;100.00;62996.53;5080124;28;20217;-77
2022/07/28 04:48:52;;;;;;;9.10;7.57;;;;;;;20.37;100.00;62978.91;5083913;28;20228;-75
2022/07/28 04:51:21;;;;;;;11.60;9.33;;;;;;;20.43;100.00;62988.50;5071398;28;20200;-77
2022/07/28 04:53:48;;;;;;;11.47;10.27;;;;;;;19.68;100.00;62907.41;5063435;28;20208;-78
2022/07/28 04:56:15;;;;;;;14.63;10.93;;;;;;;20.54;100.00;62997.84;5066301;28;20207;-77
2022/07/28 04:58:42;;;;;;;14.37;12.70;;;;;;;20.59;100.00;63003.22;5069876;28;20270;-76
2022/07/28 05:01:11;;;;;;;17.17;12.67;;;;;;;20.63;100.00;63010.16;5071598;28;20196;-76
2022/07/28 05:03:39;;;;;;;16.20;13.50;;;;;;;20.59;100.00;63002.69;5070997;28;20223;-76
2022/07/28 05:06:06;;;;;;;14.73;12.50;;;;;;;20.54;100.00;62997.84;5078451;28;20290;-75
2022/07/28 05:08:34;;;;;;;16.60;13.90;;;;;;;20.48;100.00;62999.09;5088260;28;20199;-76
2022/07/28 05:11:01;;;;;;;17.37;13.67;;;;;;;20.27;100.00;62971.22;5071165;28;20215;-77
2022/07/28 05:13:28;;;;;;;17.30;13.47;;;;;;;20.52;100.00;63000.84;5071391;28;20573;-77
2022/07/28 05:15:55;;;;;;;19.83;15.73;;;;;;;20.54;100.00;62999.88;5080342;28;20561;-77
2022/07/28 05:18:24;;;;;;;25.27;16.00;;;;;;;20.29;100.00;62972.84;5090592;28;20572;-79
2022/07/28 05:20:53;;;;;;;17.10;14.23;;;;;;;20.08;100.00;62956.34;5082459;28;20674;-75
2022/07/28 05:23:22;;;;;;;22.90;15.87;;;;;;;20.31;100.00;62975.53;5074650;28;20230;-76
2022/07/28 05:25:50;;;;;;;17.77;14.93;;;;;;;20.39;100.00;62981.59;5074739;28;20550;-76
2022/07/28 05:28:18;;;;;;;22.43;15.03;;;;;;;20.46;100.00;62991.78;5074569;28;20234;-76
2022/07/28 05:30:46;;;;;;;19.10;15.23;;;;;;;20.30;100.00;62971.88;5075061;28;20248;-74
2022/07/28 05:33:15;;;;;;;16.30;14.53;;;;;;;20.40;100.00;62982.69;5089976;28;20575;-77
2022/07/28 05:35:50;;;;;;;17.57;15.53;;;;;;;20.32;100.00;62979.22;5094337;28;20563;-76
2022/07/28 05:38:17;;;;;;;22.50;15.93;;;;;;;20.45;100.00;62988.09;5093707;28;20195;-76
2022/07/28 05:40:46;;;;;;;19.43;16.20;;;;;;;20.72;100.00;63017.31;5094673;28;20249;-76
2022/07/28 05:43:14;;;;;;;20.63;16.13;;;;;;;20.72;100.00;63019.91;5093895;28;20223;-78
2022/07/28 05:45:41;;;;;;;19.77;16.23;;;;;;;20.71;100.00;63016.22;5094547;28;20199;-75
2022/07/28 05:48:08;;;;;;;23.27;17.77;;;;;;;20.77;100.00;63024.75;5084734;28;20571;-77
2022/07/28 05:50:35;;;;;;;18.30;16.37;;;;;;;20.79;100.00;63024.31;5087305;28;20204;-75
2022/07/28 05:53:04;;;;;;;20.43;18.03;;;;;;;20.90;100.00;63036.22;5074272;28;20199;-77
2022/07/28 05:55:32;;;;;;;21.60;18.27;;;;;;;20.86;100.00;63032.44;5089426;28;20204;-74
2022/07/28 05:58:00;;;;;;;22.07;17.67;;;;;;;21.02;100.00;63049.22;5077630;28;20237;-76
2022/07/28 06:00:31;;;;;;;20.00;17.40;;;;;;;20.87;100.00;63033.53;5067312;28;20577;-77
2022/07/28 06:03:00;;;;;;;19.27;16.47;;;;;;;21.12;100.00;63065.22;5093415;28;20202;-75
2022/07/28 06:05:29;;;;;;;24.20;16.57;;;;;;;21.22;100.00;63075.50;5093566;27;20615;-76
2022/07/28 06:07:55;;;;;;;20.43;16.87;;;;;;;21.21;100.00;63069.25;5078651;28;20207;-75
2022/07/28 06:10:57;;;;;;;23.87;17.67;;;;;;;20.59;100.00;63008.41;5081770;28;20192;-75
2022/07/28 06:13:14;;;;;;;18.60;15.63;;;;;;;21.60;100.00;63114.06;5074461;28;20200;-75
2022/07/28 06:15:43;;;;;;;18.10;16.10;;;;;;;21.41;100.00;63093.50;5073614;28;20199;-75
2022/07/28 06:18:12;;;;;;;20.83;16.67;;;;;;;21.85;100.00;63138.56;5074085;28;20200;-75
2022/07/28 06:20:40;;;;;;;19.30;16.43;;;;;;;22.07;100.00;63159.78;5074005;28;20253;-78
2022/07/28 06:23:07;;;;;;;17.10;14.87;;;;;;;22.37;100.00;63200.06;5072979;28;20224;-75
2022/07/28 06:25:36;;;;;;;18.33;14.83;;;;;;;22.29;100.00;63191.41;5083717;28;20200;-75
2022/07/28 06:28:04;;;;;;;16.97;13.73;;;;;;;22.41;100.00;63203.84;5078628;28;20192;-77
2022/07/28 06:30:32;;;;;;;16.93;14.03;;;;;;;22.39;100.00;63196.50;5080579;28;20196;-77
2022/07/28 06:33:00;;;;;;;17.07;14.07;;;;;;;22.30;100.00;63189.88;5079552;28;20567;-76
2022/07/28 06:35:28;;;;;;;15.83;13.43;;;;;;;22.50;100.00;63208.94;5081783;28;20656;-77
2022/07/28 06:37:55;;;;;;;14.57;12.97;;;;;;;22.32;100.00;63192.06;5091880;28;20722;-76
2022/07/28 06:40:24;;;;;;;18.10;13.27;;;;;;;22.65;100.00;63225.25;5096235;28;20195;-76
2022/07/28 06:42:55;;;;;;;17.10;14.90;;;;;;;23.02;100.00;63264.78;5092567;28;20295;-76
2022/07/28 06:45:23;;;;;;;16.80;14.03;;;;;;;23.27;100.00;63291.34;5073046;28;20216;-75
2022/07/28 06:47:51;;;;;;;17.13;14.63;;;;;;;23.78;100.00;63351.88;5085371;28;20231;-76
2022/07/28 06:50:19;;;;;;;17.87;13.27;;;;;;;24.08;100.00;63376.66;5073244;28;20196;-76
2022/07/28 06:52:47;;;;;;;16.10;14.17;;;;;;;24.50;100.00;63421.13;5073267;28;20551;-76
2022/07/28 06:55:15;;;;;;;16.47;14.30;;;;;;;24.65;100.00;63440.53;5060574;28;20595;-77
2022/07/28 06:57:43;;;;;;;15.20;13.70;;;;;;;24.37;100.00;63404.41;5074026;28;20193;-75
2022/07/28 07:00:14;;;;;;;17.83;12.67;;;;;;;24.46;100.00;63419.38;5085797;28;20197;-76
2022/07/28 07:02:42;;;;;;;15.97;14.20;;;;;;;24.73;100.00;63448.72;5073210;28;20197;-76
2022/07/28 07:05:10;;;;;;;15.23;12.97;;;;;;;25.07;100.00;63480.44;5072571;28;20235;-76
2022/07/28 07:07:37;;;;;;;15.60;13.27;;;;;;;24.73;100.00;63448.72;5083995;28;20199;-78
2022/07/28 07:10:06;;;;;;;18.10;14.33;;;;;;;25.18;100.00;63497.56;5072745;28;20316;-75
2022/07/28 07:12:35;;;;;;;15.67;13.70;;;;;;;25.13;100.00;63492.16;5072211;28;20201;-76
2022/07/28 07:15:03;;;;;;;17.43;14.83;;;;;;;24.87;100.00;63466.53;5085296;28;20193;-76
2022/07/28 07:17:32;;;;;;;21.30;17.60;;;;;;;24.89;100.00;63471.84;5092133;28;20193;-75
2022/07/28 07:20:00;;;;;;;21.03;15.07;;;;;;;24.97;100.00;63474.78;5092521;27;20625;-75
2022/07/28 07:22:27;;;;;;;17.83;13.97;;;;;;;25.07;100.00;63490.84;5079237;28;20216;-75
2022/07/28 07:24:54;;;;;;;16.37;14.10;;;;;;;25.33;100.00;63513.88;5092071;28;20567;-77
2022/07/28 07:27:21;;;;;;;16.57;13.10;;;;;;;25.44;100.00;63523.22;5092322;28;20212;-76
2022/07/28 07:29:49;;;;;;;17.87;14.13;;;;;;;25.44;100.00;63528.44;5078536;28;20240;-76
2022/07/28 07:32:17;;;;;;;17.27;14.93;;;;;;;25.45;100.00;63534.75;5080180;28;20215;-75
2022/07/28 07:34:48;;;;;;;18.47;15.10;;;;;;;25.18;100.00;63502.78;5077056;28;20677;-76
2022/07/28 07:37:16;;;;;;;26.53;16.03;;;;;;;25.45;100.00;63526.94;5072470;28;20209;-78
2022/07/28 07:39:44;;;;;;;18.20;15.33;;;;;;;25.60;100.00;63545.81;5072798;28;20196;-76
2022/07/28 07:42:14;;;;;;;17.53;15.57;;;;;;;25.35;100.00;63516.06;5072272;28;20202;-76
2022/07/28 07:44:43;;;;;;;18.07;15.40;;;;;;;25.49;100.00;63533.88;5071642;28;20234;-74
2022/07/28 07:47:11;;;;;;;19.97;13.93;;;;;;;25.71;100.00;63555.19;5072315;28;20675;-75
2022/07/28 07:49:40;;;;;;;19.90;15.80;;;;;;;25.65;100.00;63551.28;5072084;28;20205;-77
2022/07/28 07:52:10;;;;;;;17.47;14.10;;;;;;;25.74;100.00;63558.44;5078070;28;20260;-74
2022/07/28 07:54:38;;;;;;;19.97;14.97;;;;;;;25.47;100.00;63529.09;5091602;28;20681;-76
2022/07/28 07:57:06;;;;;;;15.70;13.77;;;;;;;25.98;100.00;63306.00;5091759;28;20205;-76
2022/07/28 07:59:36;;;;;;;21.33;14.40;;;;;;;26.20;100.00;63607.38;5077351;28;20200;-79
2022/07/28 08:02:03;;;;;;;17.23;13.83;;;;;;;26.18;100.00;63605.72;5072046;28;20642;-76
2022/07/28 08:04:30;;;;;;;17.27;12.67;;;;;;;25.66;100.00;63549.75;5071875;28;20255;-76
2022/07/28 08:06:59;;;;;;;15.97;14.27;;;;;;;25.71;100.00;63555.19;5072123;28;20200;-75
2022/07/28 08:09:28;;;;;;;20.23;16.33;;;;;;;-141.29;100.00;58932.97;5071626;28;20279;-76
2022/07/28 08:11:56;;;;;;;19.50;15.17;;;;;;;25.66;100.00;63549.19;5071463;28;20195;-77
2022/07/28 08:14:24;;;;;;;20.07;14.90;;;;;;;25.77;100.00;63564.31;5074439;28;20194;-77
2022/07/28 08:16:53;;;;;;;16.60;14.83;;;;;;;-141.29;100.00;58932.97;5091717;28;20198;-77
2022/07/28 08:19:21;;;;;;;18.13;16.17;;;;;;;-141.29;100.00;58932.97;5093444;28;20195;-75
2022/07/28 08:21:50;;;;;;;19.40;15.77;;;;;;;-141.29;100.00;58932.97;5091188;28;20231;-77
2022/07/28 08:24:19;;;;;;;19.10;16.93;;;;;;;-141.29;100.00;58932.97;5091057;28;20215;-76
2022/07/28 08:26:51;;;;;;;19.67;16.73;;;;;;;-141.29;100.00;58932.97;5091453;28;20249;-76
2022/07/28 08:29:18;;;;;;;27.10;17.77;;;;;;;-141.29;100.00;58932.97;5080477;28;20226;-77
2022/07/28 08:31:46;;;;;;;22.47;17.57;;;;;;;-141.29;100.00;58932.97;5071657;28;20205;-75
2022/07/28 08:34:13;;;;;;;23.10;18.03;;;;;;;-141.29;100.00;58932.97;5070967;28;20204;-75
2022/07/28 08:36:40;;;;;;;23.20;17.97;;;;;;;-141.29;100.00;58932.97;5071378;28;20216;-76
2022/07/28 08:39:09;;;;;;;21.57;17.47;;;;;;;-141.29;100.00;58932.97;5081523;28;20196;-76
2022/07/28 08:41:44;;;;;;;25.90;18.17;;;;;;;-141.29;100.00;58932.97;5078505;28;20200;-76
2022/07/28 08:44:16;;;;;;;24.13;18.00;;;;;;;-141.29;100.00;58932.97;5075754;28;20227;-76
2022/07/28 08:46:47;;;;;;;20.47;17.60;;;;;;;-141.29;100.00;58932.97;5070957;28;20202;-74
2022/07/28 08:49:16;;;;;;;21.17;16.87;;;;;;;-141.29;100.00;58932.97;5071648;28;20245;-77
2022/07/28 08:51:44;;;;;;;23.53;16.80;;;;;;;-141.29;100.00;58932.97;5070963;28;20209;-76
2022/07/28 08:54:16;;;;;;;21.80;16.60;;;;;;;-141.29;100.00;58932.97;5057957;28;20193;-75
2022/07/28 08:56:45;;;;;;;22.30;16.03;;;;;;;-141.29;100.00;58932.97;5088454;28;20193;-76
2022/07/28 09:02:00;;;;;;;16.60;14.57;;;;;;;-141.29;100.00;58932.97;5080353;28;20195;-76
2022/07/28 09:04:28;;;;;;;22.47;15.03;;;;;;;25.47;100.00;63529.09;5094369;28;20251;-77
2022/07/28 09:06:56;;;;;;;17.73;14.43;;;;;;;-141.29;100.00;58932.97;5094707;28;20611;-77
2022/07/28 09:09:24;;;;;;;16.97;14.70;;;;;;;-141.29;100.00;58932.97;5094701;28;20204;-77
2022/07/28 09:11:51;;;;;;;18.17;14.43;;;;;;;-141.29;100.00;58932.97;5093080;28;20558;-77
2022/07/28 09:14:19;;;;;;;19.73;15.37;;;;;;;-141.29;100.00;58932.97;5076491;28;20303;-76
2022/07/28 09:16:46;;;;;;;17.17;13.67;;;;;;;-141.29;100.00;58932.97;5074694;28;20196;-75
2022/07/28 09:19:13;;;;;;;25.63;14.27;;;;;;;-141.29;100.00;58932.97;5084506;28;20200;-75
2022/07/28 09:21:43;;;;;;;16.67;13.13;;;;;;;-141.29;100.00;58932.97;5082530;28;20213;-76
2022/07/28 09:24:33;;;;;;;20.80;14.53;;;;;;;-141.29;100.00;58932.97;5092327;28;20233;-76
2022/07/28 09:27:01;;;;;;;17.73;13.37;;;;;;;-141.29;100.00;58932.97;5086724;28;20200;-76
2022/07/28 09:29:30;;;;;;;20.90;13.73;;;;;;;-141.29;100.00;58932.97;5076563;28;20233;-76
2022/07/28 09:31:57;;;;;;;19.77;13.70;;;;;;;-141.29;100.00;58932.97;5073988;28;20200;-76
2022/07/28 09:34:24;;;;;;;21.47;14.57;;;;;;;-141.29;100.00;58932.97;5074281;28;20572;-75
2022/07/28 09:36:51;;;;;;;17.23;13.93;;;;;;;-141.29;100.00;58932.97;5086475;28;20212;-77
2022/07/28 09:39:32;;;;;;;17.57;14.33;;;;;;;-141.29;100.00;58932.97;5075362;28;20651;-74
2022/07/28 09:42:02;;;;;;;15.53;13.70;;;;;;;-141.29;100.00;58932.97;5074917;28;20204;-77
2022/07/28 09:44:34;;;;;;;16.67;13.87;;;;;;;-141.29;100.00;58932.97;5073937;28;20223;-78
2022/07/28 09:47:03;;;;;;;16.37;14.17;;;;;;;-141.29;100.00;58932.97;5073806;28;20606;-77
2022/07/28 09:49:41;;;;;;;18.27;15.13;;;;;;;-141.29;100.00;58932.97;5074904;28;20197;-76
2022/07/28 09:52:10;;;;;;;20.07;14.83;;;;;;;-141.29;100.00;58932.97;5075190;28;20199;-75
2022/07/28 09:54:37;;;;;;;18.60;15.13;;;;;;;-141.29;100.00;58932.97;5073650;28;20234;-75
2022/07/28 09:57:05;;;;;;;23.47;14.47;;;;;;;-141.29;100.00;58932.97;5075751;28;20201;-76
2022/07/28 09:59:45;;;;;;;27.07;15.57;;;;;;;-141.29;100.00;58932.97;5074752;28;20328;-75
2022/07/28 10:02:13;;;;;;;24.87;16.90;;;;;;;-141.29;100.00;58932.97;5062843;28;20209;-77
2022/07/28 10:04:41;;;;;;;21.40;16.10;;;;;;;-141.29;100.00;58932.97;5075472;28;20228;-76
2022/07/28 10:07:10;;;;;;;17.63;14.10;;;;;;;-141.29;100.00;58932.97;5073886;28;20282;-77
2022/07/28 10:09:38;;;;;;;21.07;14.57;;;;;;;-141.29;100.00;58932.97;5074095;28;20233;-76
2022/07/28 10:12:16;;;;;;;19.50;16.10;;;;;;;-141.29;100.00;58932.97;5074246;28;20196;-76
2022/07/28 10:14:47;;;;;;;19.23;15.33;;;;;;;-141.29;100.00;58932.97;5075077;28;20203;-75
2022/07/28 10:17:26;;;;;;;22.33;15.00;;;;;;;-141.29;100.00;58932.97;5074195;28;20197;-76
2022/07/28 10:19:56;;;;;;;17.30;13.70;;;;;;;-141.29;100.00;58932.97;5073804;28;20200;-75
2022/07/28 10:22:26;;;;;;;17.93;15.87;;;;;;;-141.29;100.00;58932.97;5075041;28;20622;-77
2022/07/28 10:24:56;;;;;;;18.97;13.93;;;;;;;28.54;100.00;63863.56;5062533;28;20631;-76
2022/07/28 10:27:25;;;;;;;17.00;12.20;;;;;;;29.06;100.00;63917.03;5075174;28;20626;-74
2022/07/28 10:29:57;;;;;;;13.80;10.70;;;;;;;29.39;100.00;63947.22;5073238;28;20228;-76
2022/07/28 10:32:28;;;;;;;18.37;11.13;;;;;;;29.06;100.00;63917.03;5073604;28;20283;-76
2022/07/28 10:35:01;;;;;;;15.40;10.30;;;;;;;29.88;100.00;64006.47;5075853;28;20197;-75
2022/07/28 10:37:28;;;;;;;14.03;10.20;;;;;;;30.27;100.00;64048.44;5077132;28;20197;-76
2022/07/28 10:40:02;;;;;;;14.53;10.90;;;;;;;29.89;100.00;64012.28;5073923;28;20193;-76
2022/07/28 10:42:31;;;;;;;13.53;10.87;;;;;;;30.22;100.00;64043.00;5073203;28;20197;-75
2022/07/28 10:45:01;;;;;;;13.10;11.60;;;;;;;30.10;100.00;64029.91;5073996;28;20220;-76
2022/07/28 10:47:28;;;;;;;19.63;13.83;;;;;;;30.19;100.00;64039.72;5073397;28;20198;-75
2022/07/28 10:49:56;;;;;;;19.27;12.40;;;;;;;30.53;100.00;64078.91;5073345;28;20286;-77
2022/07/28 10:52:24;;;;;;;17.67;11.33;;;;;;;30.48;100.00;64076.66;5073313;28;20197;-77
2022/07/28 10:55:07;;;;;;;10.50;9.50;;;;;;;30.12;100.00;64031.56;5073141;28;20198;-76
2022/07/28 10:57:38;;;;;;;11.90;9.93;;;;;;;30.15;100.00;64040.06;5073068;28;20213;-77
2022/07/28 11:00:16;;;;;;;15.80;9.40;;;;;;;30.38;100.00;64057.84;5072693;28;20210;-77
2022/07/28 11:02:49;;;;;;;13.93;9.40;;;;;;;30.54;100.00;64083.19;5072850;28;20285;-76
2022/07/28 11:05:33;;;;;;;11.63;9.57;;;;;;;30.90;100.00;64121.41;5072439;28;20284;-77
2022/07/28 11:08:02;;;;;;;17.80;10.10;;;;;;;30.52;100.00;64075.75;5072222;28;20225;-77
2022/07/28 11:10:43;;;;;;;14.20;10.33;;;;;;;30.56;100.00;64080.13;5072526;28;20233;-75
2022/07/28 11:13:24;;;;;;;12.73;9.97;;;;;;;29.20;100.00;63938.13;5072349;28;20230;-75
2022/07/28 11:15:54;;;;;;;13.13;9.90;;;;;;;29.82;100.00;63999.91;5072437;28;20209;-76
2022/07/28 11:18:22;;;;;;;16.27;10.37;;;;;;;30.01;100.00;64020.66;5072636;28;20210;-75
2022/07/28 11:21:10;;;;;;;13.83;9.40;;;;;;;30.20;100.00;64046.09;5072257;28;20557;-77
2022/07/28 11:23:47;;;;;;;10.57;9.47;;;;;;;30.16;100.00;64039.09;5072401;28;20203;-75
2022/07/28 11:26:37;;;;;;;14.20;10.30;;;;;;;30.21;100.00;64041.91;5071727;28;20661;-75
2022/07/28 11:29:15;;;;;;;10.57;9.20;;;;;;;30.66;100.00;64091.03;5072237;28;20226;-75
2022/07/28 11:32:04;;;;;;;11.17;9.90;;;;;;;30.73;100.00;64103.91;5072237;28;20190;-78